Time;durP1;ratioP1;P1;durP2;ratioP2;P2;SDS_P1;SDS_P2;PMS_P1;PMS_P2;Temp;Humidity;BMP_temperature;BMP_pressure;BME280_temperature;BME280_humidity;BME280_pressure;Samples;Min_cycle;Max_cycle;Signal;HPM_P1;HPM_P2
2022/09/25 00:01:32;;;;;;;1.70;1.60;;;;;;;11.53;100.00;96230.03;4914556;29;20612;-57
2022/09/25 00:03:59;;;;;;;3.77;1.40;;;;;;;11.55;100.00;96225.44;4913239;29;20316;-57
2022/09/25 00:06:27;;;;;;;1.90;1.80;;;;;;;11.55;100.00;96231.53;4910611;29;20712;-57
2022/09/25 00:08:55;;;;;;;3.83;1.90;;;;;;;11.54;100.00;96227.25;4910836;29;20203;-57
2022/09/25 00:11:23;;;;;;;2.00;1.90;;;;;;;11.58;100.00;96223.28;4910439;29;20687;-56
2022/09/25 00:13:51;;;;;;;2.00;1.90;;;;;;;11.58;100.00;96228.59;4910975;29;20302;-57
2022/09/25 00:16:21;;;;;;;4.07;1.90;;;;;;;11.55;100.00;96218.28;4916883;29;20235;-62
2022/09/25 00:21:33;;;;;;;2.30;2.10;;;;;;;11.52;100.00;96223.91;4922312;29;20671;-57
2022/09/25 00:24:02;;;;;;;3.43;1.90;;;;;;;11.46;100.00;96225.38;4920236;29;20291;-56
2022/09/25 00:26:30;;;;;;;4.73;2.33;;;;;;;11.45;100.00;96217.59;4922528;29;20623;-57
2022/09/25 00:28:59;;;;;;;2.03;1.93;;;;;;;11.43;100.00;96224.88;4933179;29;20200;-57
2022/09/25 00:31:28;;;;;;;2.90;2.30;;;;;;;11.42;100.00;96223.22;4938960;29;20235;-57
2022/09/25 00:33:57;;;;;;;2.53;2.43;;;;;;;11.41;100.00;96218.91;4935592;29;20188;-57
2022/09/25 00:36:24;;;;;;;2.87;2.40;;;;;;;11.39;100.00;96224.38;4928527;29;20715;-57
2022/09/25 00:38:52;;;;;;;3.07;2.27;;;;;;;11.38;100.00;96220.03;4930319;29;20239;-57
2022/09/25 00:41:20;;;;;;;2.67;2.57;;;;;;;11.37;100.00;96223.69;4926513;29;20228;-57
2022/09/25 00:43:49;;;;;;;3.50;2.90;;;;;;;11.36;100.00;96223.84;4933812;29;20204;-57
2022/09/25 00:46:20;;;;;;;4.90;2.87;;;;;;;11.35;100.00;96227.47;4936395;29;20168;-58
2022/09/25 00:48:50;;;;;;;2.77;2.43;;;;;;;11.39;100.00;96228.81;4930097;29;20604;-57
2022/09/25 00:51:20;;;;;;;3.37;3.17;;;;;;;11.35;100.00;96228.31;4916467;29;20253;-55
2022/09/25 00:53:47;;;;;;;3.70;3.40;;;;;;;11.33;100.00;96218.88;4930057;29;20188;-57
2022/09/25 00:56:14;;;;;;;3.30;3.00;;;;;;;11.38;100.00;96213.91;4930294;29;20192;-57
2022/09/25 00:58:41;;;;;;;4.10;3.80;;;;;;;11.39;100.00;96207.66;4930335;29;20211;-56
2022/09/25 01:01:08;;;;;;;4.93;4.10;;;;;;;11.40;100.00;96204.84;4918328;29;20228;-56
2022/09/25 01:03:35;;;;;;;6.13;5.63;;;;;;;11.42;100.00;96212.63;4907423;29;20228;-58
2022/09/25 01:06:04;;;;;;;6.83;6.10;;;;;;;11.44;100.00;96208.81;4907634;29;20299;-57
2022/09/25 01:08:32;;;;;;;7.07;6.40;;;;;;;11.47;100.00;96205.03;4907529;29;20250;-57
2022/09/25 01:10:59;;;;;;;6.10;5.60;;;;;;;11.47;100.00;96200.59;4906737;29;20239;-56
2022/09/25 01:13:25;;;;;;;7.63;7.03;;;;;;;11.51;100.00;96195.78;4908006;29;20615;-57
2022/09/25 01:15:56;;;;;;;8.70;7.90;;;;;;;11.54;100.00;96195.47;4907223;29;20295;-56
2022/09/25 01:18:30;;;;;;;8.97;8.17;;;;;;;11.55;100.00;96189.16;4907465;29;20288;-57
2022/09/25 01:21:06;;;;;;;9.43;8.53;;;;;;;11.54;100.00;96187.53;4906987;29;20529;-57
2022/09/25 01:24:05;;;;;;;13.57;8.80;;;;;;;11.53;100.00;96183.22;4906737;29;20201;-58
2022/09/25 01:27:06;;;;;;;10.90;9.90;;;;;;;11.57;100.00;96189.00;4906596;29;20201;-58
2022/09/25 01:29:36;;;;;;;10.90;9.30;;;;;;;11.58;100.00;96191.53;4887339;29;20215;-57
2022/09/25 01:32:06;;;;;;;12.30;8.93;;;;;;;11.62;100.00;96195.47;4906692;29;20196;-55
2022/09/25 01:34:40;;;;;;;14.60;9.37;;;;;;;11.63;100.00;96207.75;4906618;29;20203;-57
2022/09/25 01:37:13;;;;;;;11.30;8.20;;;;;;;11.60;100.00;96204.59;4906780;29;20299;-57
2022/09/25 01:39:44;;;;;;;12.00;9.20;;;;;;;11.61;100.00;96196.50;4906445;29;20256;-57
2022/09/25 01:42:19;;;;;;;11.30;9.07;;;;;;;11.61;100.00;96196.50;4906703;29;20292;-56
2022/09/25 01:44:52;;;;;;;10.57;9.43;;;;;;;11.61;100.00;96191.19;4905969;29;20243;-57
2022/09/25 01:47:22;;;;;;;11.00;9.90;;;;;;;11.57;100.00;96195.16;4906853;29;20653;-57
2022/09/25 01:49:50;;;;;;;11.00;9.87;;;;;;;11.56;100.00;96188.19;4905974;29;20220;-57
2022/09/25 01:52:21;;;;;;;13.27;11.97;;;;;;;11.57;100.00;96179.25;4906898;29;20296;-57
2022/09/25 01:54:50;;;;;;;13.40;12.10;;;;;;;11.60;100.00;96181.59;4905953;29;20200;-57
2022/09/25 01:57:19;;;;;;;11.83;10.63;;;;;;;11.67;100.00;96189.72;4905858;29;20289;-58
2022/09/25 01:59:52;;;;;;;9.17;8.27;;;;;;;11.72;100.00;96192.75;4906195;29;20670;-57
2022/09/25 02:02:22;;;;;;;9.70;7.50;;;;;;;11.71;100.00;96186.63;4906100;29;20196;-57
2022/09/25 02:04:51;;;;;;;8.63;7.83;;;;;;;11.75;100.00;96187.13;4906855;29;20229;-56
2022/09/25 02:07:21;;;;;;;9.23;8.43;;;;;;;11.69;100.00;96183.25;4906582;29;20222;-56
2022/09/25 02:09:51;;;;;;;10.40;8.67;;;;;;;11.70;100.00;96176.13;4906184;29;20203;-57
2022/09/25 02:12:22;;;;;;;9.33;8.40;;;;;;;11.75;100.00;96185.31;4906393;29;20306;-57
2022/09/25 02:14:53;;;;;;;9.13;8.33;;;;;;;11.77;100.00;96180.66;4905770;29;20606;-56
2022/09/25 02:22:52;;;;;;;9.80;8.80;;;;;;;11.79;100.00;96186.66;4906330;29;20222;-55
2022/09/25 02:25:22;;;;;;;11.60;10.10;;;;;;;11.86;100.00;96192.97;4906080;29;20203;-56
2022/09/25 02:27:49;;;;;;;15.63;12.83;;;;;;;11.88;100.00;96190.97;4906543;29;20245;-56
2022/09/25 02:30:17;;;;;;;14.43;12.70;;;;;;;11.88;100.00;96188.31;4905733;29;20233;-57
2022/09/25 02:32:44;;;;;;;14.00;12.60;;;;;;;11.90;100.00;96169.63;4906967;29;20204;-56
2022/09/25 02:35:10;;;;;;;13.87;12.47;;;;;;;11.94;100.00;96182.34;4906183;29;20311;-56
2022/09/25 02:37:37;;;;;;;14.10;12.70;;;;;;;11.96;100.00;96180.41;4906450;29;20333;-57
2022/09/25 02:40:05;;;;;;;15.43;13.83;;;;;;;11.97;100.00;96176.72;4906352;29;20204;-56
2022/09/25 02:42:36;;;;;;;15.87;14.27;;;;;;;11.98;100.00;96173.09;4906206;29;20300;-55
2022/09/25 02:45:23;;;;;;;15.97;14.10;;;;;;;11.97;100.00;96168.78;4906086;29;20382;-56
2022/09/25 02:47:57;;;;;;;16.73;14.93;;;;;;;11.97;100.00;96176.72;4905957;29;20299;-55
2022/09/25 02:50:27;;;;;;;17.13;15.33;;;;;;;11.96;100.00;96175.09;4906243;29;20231;-56
2022/09/25 02:53:01;;;;;;;18.63;15.63;;;;;;;11.97;100.00;96183.88;4905796;29;20204;-56
2022/09/25 02:55:34;;;;;;;19.53;16.37;;;;;;;11.95;100.00;96177.88;4906037;29;20642;-57
2022/09/25 02:58:06;;;;;;;17.70;15.80;;;;;;;11.97;100.00;96182.03;4906336;29;20316;-56
2022/09/25 03:00:35;;;;;;;19.33;16.17;;;;;;;11.95;100.00;96176.06;4906070;29;20295;-56
2022/09/25 03:03:02;;;;;;;16.83;15.23;;;;;;;12.02;100.00;96173.59;4905551;29;20208;-55
2022/09/25 03:05:30;;;;;;;15.53;13.93;;;;;;;12.02;100.00;96172.78;4905820;29;20262;-56
2022/09/25 03:10:44;;;;;;;11.67;10.50;;;;;;;12.00;100.00;96169.47;4906195;29;20235;-55
2022/09/25 03:13:16;;;;;;;10.80;9.70;;;;;;;12.00;100.00;96166.81;4906194;29;20215;-57
2022/09/25 03:15:47;;;;;;;9.93;9.00;;;;;;;12.02;100.00;96172.78;4905612;29;20296;-56
2022/09/25 03:18:15;;;;;;;11.67;10.13;;;;;;;12.02;100.00;96162.16;4905998;29;20296;-55
2022/09/25 03:20:42;;;;;;;12.30;9.63;;;;;;;12.00;100.00;96169.47;4906448;29;20228;-56
2022/09/25 03:23:10;;;;;;;11.33;10.23;;;;;;;11.98;100.00;96167.78;4905997;29;20291;-57
2022/09/25 03:25:37;;;;;;;11.50;10.40;;;;;;;11.98;100.00;96159.84;4907044;29;20298;-56
2022/09/25 03:28:03;;;;;;;11.13;9.97;;;;;;;11.98;100.00;96159.84;4909297;29;20720;-55
2022/09/25 03:30:30;;;;;;;10.60;9.60;;;;;;;11.93;100.00;96159.53;4910096;29;20262;-57
2022/09/25 03:32:58;;;;;;;11.63;10.53;;;;;;;11.94;100.00;96161.16;4896978;29;20279;-56
2022/09/25 03:35:25;;;;;;;11.37;10.27;;;;;;;11.96;100.00;96153.91;4918027;29;20296;-56
2022/09/25 03:37:52;;;;;;;11.70;10.60;;;;;;;12.00;100.00;96153.56;4915434;29;20620;-57
2022/09/25 03:40:19;;;;;;;12.53;11.33;;;;;;;12.01;100.00;96155.22;4911474;29;20203;-56
2022/09/25 03:42:46;;;;;;;12.83;11.63;;;;;;;12.03;100.00;96153.22;4913017;29;20212;-57
2022/09/25 03:45:13;;;;;;;11.47;10.37;;;;;;;12.10;100.00;96156.88;4911984;29;20267;-54
2022/09/25 03:47:40;;;;;;;11.73;10.63;;;;;;;12.07;100.00;96154.56;4910049;29;20212;-56
2022/09/25 03:50:09;;;;;;;12.27;10.77;;;;;;;12.06;100.00;96153.72;4909552;29;20205;-56
2022/09/25 03:52:36;;;;;;;13.33;11.93;;;;;;;12.11;100.00;96155.91;4908845;29;20640;-56
2022/09/25 03:55:04;;;;;;;12.47;11.27;;;;;;;12.13;100.00;96153.91;4909463;29;20216;-56
2022/09/25 03:57:31;;;;;;;13.47;11.50;;;;;;;12.14;100.00;96144.97;4908994;29;20303;-55
2022/09/25 04:00:00;;;;;;;14.23;12.43;;;;;;;12.18;100.00;96141.00;4908265;29;20211;-57
2022/09/25 04:02:27;;;;;;;13.40;12.00;;;;;;;12.14;100.00;96144.97;4908727;29;20201;-56
2022/09/25 04:04:54;;;;;;;13.10;11.80;;;;;;;12.12;100.00;96154.88;4909106;29;20343;-57
2022/09/25 04:07:22;;;;;;;13.43;12.03;;;;;;;12.17;100.00;96160.53;4909051;29;20215;-56
2022/09/25 04:09:49;;;;;;;14.00;12.50;;;;;;;12.17;100.00;96157.88;4908554;29;20267;-55
2022/09/25 04:12:16;;;;;;;13.67;12.17;;;;;;;12.15;100.00;96162.53;4908020;29;20224;-57
2022/09/25 04:14:44;;;;;;;14.67;13.13;;;;;;;12.14;100.00;96155.56;4908591;29;20222;-57
2022/09/25 04:17:10;;;;;;;14.93;13.33;;;;;;;12.17;100.00;96156.06;4908345;29;20263;-57
2022/09/25 04:19:37;;;;;;;16.77;14.63;;;;;;;12.17;100.00;96149.94;4908826;29;20255;-56
2022/09/25 04:22:04;;;;;;;18.20;15.50;;;;;;;12.18;100.00;96143.66;4908279;29;20208;-55
2022/09/25 04:24:50;;;;;;;18.37;16.17;;;;;;;12.18;100.00;96156.91;4908482;29;20303;-56
2022/09/25 04:27:19;;;;;;;17.13;15.33;;;;;;;12.22;100.00;96163.53;4891661;29;20215;-56
2022/09/25 04:29:46;;;;;;;17.93;15.83;;;;;;;12.23;100.00;96163.34;4908452;29;20598;-57
2022/09/25 04:34:57;;;;;;;18.37;16.17;;;;;;;12.20;100.00;96173.47;4908096;29;20204;-56
2022/09/25 04:37:25;;;;;;;17.97;16.03;;;;;;;12.23;100.00;96175.78;4908269;29;20212;-56
2022/09/25 04:39:53;;;;;;;16.90;14.90;;;;;;;12.22;100.00;96168.84;4908323;29;20212;-57
2022/09/25 04:42:23;;;;;;;16.90;15.20;;;;;;;12.20;100.00;96171.63;4907861;29;20578;-56
2022/09/25 04:44:52;;;;;;;17.60;15.80;;;;;;;12.19;100.00;96167.31;4907890;29;20267;-55
2022/09/25 04:47:20;;;;;;;17.87;16.07;;;;;;;12.11;100.00;96163.84;4908375;29;20251;-56
2022/09/25 04:49:47;;;;;;;17.53;15.83;;;;;;;12.10;100.00;96163.03;4907105;29;20338;-55
2022/09/25 04:52:14;;;;;;;16.73;15.03;;;;;;;12.09;100.00;96164.00;4907795;29;20287;-56
2022/09/25 04:54:41;;;;;;;15.87;14.20;;;;;;;12.14;100.00;96163.53;4907867;29;20287;-55
2022/09/25 04:57:10;;;;;;;14.40;12.90;;;;;;;12.18;100.00;96168.34;4907945;29;20204;-56
2022/09/25 04:59:37;;;;;;;16.20;14.50;;;;;;;12.19;100.00;96163.84;4908063;29;20204;-56
2022/09/25 05:02:04;;;;;;;18.47;15.30;;;;;;;12.18;100.00;96163.03;4906904;29;20521;-56
2022/09/25 05:04:30;;;;;;;17.73;13.93;;;;;;;12.23;100.00;96166.00;4907777;29;20217;-56
2022/09/25 05:06:57;;;;;;;18.03;15.90;;;;;;;12.22;100.00;96168.84;4907049;29;20624;-57
2022/09/25 05:09:24;;;;;;;20.20;16.87;;;;;;;12.23;100.00;96171.31;4908192;29;20305;-56
2022/09/25 05:11:50;;;;;;;19.30;16.20;;;;;;;12.25;100.00;96179.09;4908600;29;20220;-57
2022/09/25 05:14:19;;;;;;;19.37;16.47;;;;;;;12.23;100.00;96181.06;4908290;29;20303;-56
2022/09/25 05:16:46;;;;;;;19.93;16.63;;;;;;;12.26;100.00;96168.31;4908602;29;20243;-57
2022/09/25 05:19:12;;;;;;;18.73;16.73;;;;;;;12.24;100.00;96166.84;4909145;29;20299;-57
2022/09/25 05:21:39;;;;;;;19.23;17.13;;;;;;;12.25;100.00;96173.81;4908811;29;20861;-57
2022/09/25 05:24:07;;;;;;;17.87;15.97;;;;;;;12.22;100.00;96174.13;4907886;29;20216;-56
2022/09/25 05:26:34;;;;;;;16.27;14.60;;;;;;;12.16;100.00;96177.44;4908301;29;20216;-56
2022/09/25 05:29:00;;;;;;;15.83;14.13;;;;;;;12.21;100.00;96180.41;4907823;29;20204;-55
2022/09/25 05:31:28;;;;;;;15.63;14.10;;;;;;;12.20;100.00;96186.72;4907876;29;20242;-56
2022/09/25 05:33:56;;;;;;;14.33;12.93;;;;;;;12.25;100.00;96187.06;4907250;29;20211;-56
2022/09/25 05:36:23;;;;;;;15.27;13.67;;;;;;;12.30;100.00;96196.16;4906627;29;20264;-57
2022/09/25 05:38:50;;;;;;;16.00;14.30;;;;;;;12.32;100.00;96188.91;4906782;29;20252;-57
2022/09/25 05:41:17;;;;;;;16.97;15.27;;;;;;;12.25;100.00;96184.41;4907052;29;20286;-55
2022/09/25 05:43:46;;;;;;;15.83;14.33;;;;;;;12.32;100.00;96188.06;4906605;29;20240;-57
2022/09/25 05:46:14;;;;;;;15.77;14.20;;;;;;;12.33;100.00;96184.41;4906670;29;20303;-56
2022/09/25 05:48:42;;;;;;;16.77;15.10;;;;;;;12.31;100.00;96184.56;4906533;29;20295;-56
2022/09/25 05:51:09;;;;;;;16.47;14.87;;;;;;;12.33;100.00;96189.69;4907035;29;20204;-56
2022/09/25 05:53:36;;;;;;;17.23;15.50;;;;;;;12.36;100.00;96194.69;4907168;29;20321;-56
2022/09/25 05:56:05;;;;;;;16.07;14.57;;;;;;;12.35;100.00;96200.97;4907128;29;20207;-56
2022/09/25 05:58:32;;;;;;;16.80;15.17;;;;;;;12.30;100.00;96195.34;4907541;29;20211;-58
2022/09/25 06:01:00;;;;;;;14.77;13.27;;;;;;;12.31;100.00;96202.31;4906376;29;20212;-56
2022/09/25 06:03:28;;;;;;;15.10;13.50;;;;;;;12.34;100.00;96194.00;4907108;29;20219;-56
2022/09/25 06:05:56;;;;;;;15.20;13.40;;;;;;;12.39;100.00;96197.00;4906762;29;20200;-56
2022/09/25 06:08:23;;;;;;;13.53;12.20;;;;;;;12.41;100.00;96195.00;4906795;29;20300;-56
2022/09/25 06:10:53;;;;;;;14.27;12.87;;;;;;;12.46;100.00;96196.19;4906041;29;20207;-56
2022/09/25 06:13:20;;;;;;;14.63;13.23;;;;;;;12.47;100.00;96194.34;4906231;29;20277;-57
2022/09/25 06:15:49;;;;;;;15.13;13.63;;;;;;;12.47;100.00;96191.69;4906220;29;20343;-56
2022/09/25 06:18:17;;;;;;;14.90;13.40;;;;;;;12.48;100.00;96198.66;4906542;29;20216;-55
2022/09/25 06:20:44;;;;;;;14.87;13.40;;;;;;;12.45;100.00;96201.66;4906772;29;20697;-56
2022/09/25 06:23:12;;;;;;;14.10;12.73;;;;;;;12.52;100.00;96202.66;4906078;29;20638;-55
2022/09/25 06:25:39;;;;;;;15.00;13.50;;;;;;;12.46;100.00;96205.97;4906812;29;20214;-55
2022/09/25 06:28:07;;;;;;;14.87;13.33;;;;;;;12.47;100.00;96205.78;4905957;29;20634;-56
2022/09/25 06:30:35;;;;;;;14.30;12.80;;;;;;;12.45;100.00;96207.78;4906165;29;20705;-55
2022/09/25 06:33:05;;;;;;;14.23;12.83;;;;;;;12.54;100.00;96200.63;4906102;29;20326;-56
2022/09/25 06:35:33;;;;;;;14.10;12.70;;;;;;;12.57;100.00;96203.00;4906347;29;20714;-57
2022/09/25 06:38:00;;;;;;;14.17;12.77;;;;;;;12.58;100.00;96209.94;4917955;29;20216;-56
2022/09/25 06:40:30;;;;;;;14.57;13.17;;;;;;;12.53;100.00;96199.00;4925160;29;20212;-57
2022/09/25 06:42:57;;;;;;;13.13;11.63;;;;;;;12.59;100.00;96198.34;4921665;29;20247;-57
2022/09/25 06:45:25;;;;;;;13.10;11.80;;;;;;;12.64;100.00;96206.63;4911196;29;20318;-55
2022/09/25 06:47:53;;;;;;;13.60;11.60;;;;;;;12.68;100.00;96209.78;4906479;29;20588;-56
2022/09/25 06:50:19;;;;;;;13.10;11.83;;;;;;;12.70;100.00;96216.56;4906289;29;20213;-56
2022/09/25 06:52:46;;;;;;;12.53;11.27;;;;;;;12.71;100.00;96210.28;4905744;29;20619;-56
2022/09/25 06:55:13;;;;;;;12.17;10.97;;;;;;;12.70;100.00;96210.44;4905460;29;20630;-56
2022/09/25 06:57:41;;;;;;;12.43;11.20;;;;;;;12.70;100.00;96215.75;4906655;29;20201;-55
2022/09/25 07:00:09;;;;;;;11.63;10.30;;;;;;;12.68;100.00;96205.28;4908339;29;20208;-54
2022/09/25 07:05:19;;;;;;;11.00;10.00;;;;;;;12.82;100.00;96207.25;4912407;29;20206;-56
2022/09/25 07:07:47;;;;;;;11.33;10.33;;;;;;;12.87;100.00;96206.75;4920313;29;20243;-57
2022/09/25 07:10:14;;;;;;;11.73;10.57;;;;;;;12.95;100.00;96210.25;4921708;29;20209;-56
2022/09/25 07:12:43;;;;;;;11.00;9.93;;;;;;;12.95;100.00;96209.41;4918164;29;20279;-56
2022/09/25 07:15:10;;;;;;;10.43;9.53;;;;;;;13.05;100.00;96214.53;4921251;29;20227;-56
2022/09/25 07:17:36;;;;;;;11.00;10.00;;;;;;;12.98;100.00;96220.53;4920059;29;20209;-56
2022/09/25 07:20:03;;;;;;;10.90;9.80;;;;;;;12.97;100.00;96207.41;4913266;29;20204;-56
2022/09/25 07:22:31;;;;;;;11.10;10.10;;;;;;;13.00;100.00;96211.56;4920387;29;20207;-63
2022/09/25 07:24:57;;;;;;;10.37;9.47;;;;;;;13.09;100.00;96211.41;4919651;29;20295;-56
2022/09/25 07:27:24;;;;;;;12.13;10.93;;;;;;;12.93;100.00;96211.44;4924558;29;20281;-57
2022/09/25 07:29:52;;;;;;;10.17;9.27;;;;;;;13.03;100.00;96212.06;4918848;29;20295;-56
2022/09/25 07:32:19;;;;;;;11.43;10.33;;;;;;;12.95;100.00;96204.94;4910313;29;20315;-54
2022/09/25 07:34:49;;;;;;;10.40;9.50;;;;;;;13.01;100.00;96207.91;4910832;29;20846;-56
2022/09/25 07:37:15;;;;;;;11.20;10.07;;;;;;;13.02;100.00;96215.72;4909819;29;20212;-56
2022/09/25 07:39:42;;;;;;;10.63;9.67;;;;;;;13.06;100.00;96218.84;4909300;29;20311;-55
2022/09/25 07:42:09;;;;;;;11.10;10.00;;;;;;;13.07;100.00;96217.88;4909492;29;20286;-56
2022/09/25 07:44:36;;;;;;;12.63;11.43;;;;;;;13.03;100.00;96221.84;4910256;29;20328;-57
2022/09/25 07:47:06;;;;;;;11.80;10.80;;;;;;;13.10;100.00;96228.19;4909378;29;20225;-56
2022/09/25 07:49:33;;;;;;;11.50;10.30;;;;;;;13.11;100.00;96229.84;4908868;29;20208;-56
2022/09/25 07:52:00;;;;;;;11.93;10.83;;;;;;;13.08;100.00;96220.34;4892665;29;20287;-56
2022/09/25 07:54:27;;;;;;;10.50;9.53;;;;;;;13.11;100.00;96219.22;4909320;29;20311;-56
2022/09/25 07:56:54;;;;;;;11.30;10.20;;;;;;;13.17;100.00;96221.19;4909206;29;20286;-56
2022/09/25 07:59:20;;;;;;;11.13;10.10;;;;;;;13.19;100.00;96216.53;4909904;29;20284;-57
2022/09/25 08:01:47;;;;;;;11.17;10.17;;;;;;;13.24;100.00;96219.53;4910372;29;20251;-57
2022/09/25 08:04:15;;;;;;;11.10;10.10;;;;;;;13.22;100.00;96227.66;4911001;29;20236;-55
2022/09/25 08:06:42;;;;;;;10.70;9.80;;;;;;;13.23;100.00;96216.03;4910302;29;20322;-56
2022/09/25 08:09:10;;;;;;;11.00;10.00;;;;;;;13.27;100.00;96225.31;4915272;29;20603;-56
2022/09/25 08:11:37;;;;;;;10.87;9.87;;;;;;;13.21;100.00;96222.53;4916936;29;20287;-56
2022/09/25 08:14:04;;;;;;;12.70;10.17;;;;;;;13.16;100.00;96224.84;4918361;29;20270;-56
2022/09/25 08:16:30;;;;;;;10.73;9.73;;;;;;;13.17;100.00;96221.19;4923506;29;20208;-54
2022/09/25 08:18:57;;;;;;;10.03;9.13;;;;;;;13.22;100.00;96226.81;4914657;29;20243;-56
2022/09/25 08:21:27;;;;;;;10.77;9.77;;;;;;;13.23;100.00;96228.47;4926859;29;20208;-55
2022/09/25 08:23:54;;;;;;;10.23;9.23;;;;;;;13.29;100.00;96238.41;4929891;29;20204;-55
2022/09/25 08:26:21;;;;;;;11.43;10.27;;;;;;;13.13;100.00;96239.28;4931585;29;20200;-55
2022/09/25 08:28:49;;;;;;;10.73;9.63;;;;;;;13.04;100.00;96234.94;4929540;29;20216;-56
2022/09/25 08:31:17;;;;;;;9.50;8.40;;;;;;;13.15;100.00;96236.44;4927626;29;20271;-59
2022/09/25 08:33:47;;;;;;;9.30;8.47;;;;;;;13.18;100.00;96238.78;4914663;29;20300;-57
2022/09/25 08:36:14;;;;;;;9.60;8.73;;;;;;;13.19;100.00;96240.44;4916380;29;20278;-55
2022/09/25 08:38:43;;;;;;;9.90;9.00;;;;;;;13.18;100.00;96238.78;4918754;29;20213;-56
2022/09/25 08:41:14;;;;;;;9.47;8.67;;;;;;;13.17;100.00;96239.78;4915727;29;20233;-55
2022/09/25 08:43:46;;;;;;;9.63;8.73;;;;;;;13.23;100.00;96250.56;4913123;29;20236;-57
2022/09/25 08:49:05;;;;;;;10.00;9.20;;;;;;;13.30;100.00;96251.53;4907538;29;20343;-55
2022/09/25 08:51:34;;;;;;;10.43;9.50;;;;;;;13.37;100.00;96243.72;4907585;29;20652;-55
2022/09/25 08:54:03;;;;;;;9.30;8.43;;;;;;;13.44;100.00;96242.03;4907127;29;20688;-56
2022/09/25 08:56:31;;;;;;;8.97;8.17;;;;;;;13.46;100.00;96245.38;4907913;29;20303;-54
2022/09/25 08:59:03;;;;;;;9.93;9.03;;;;;;;13.46;100.00;96242.72;4906901;29;20303;-54
2022/09/25 09:01:40;;;;;;;9.90;9.00;;;;;;;13.42;100.00;96238.72;4906940;29;20214;-55
2022/09/25 09:04:09;;;;;;;10.13;9.23;;;;;;;13.41;100.00;96237.91;4907442;29;20204;-54
2022/09/25 09:06:38;;;;;;;9.67;8.87;;;;;;;13.41;100.00;96243.22;4906966;29;20648;-55
2022/09/25 09:09:09;;;;;;;10.73;9.70;;;;;;;13.39;100.00;96245.19;4906855;29;20301;-56
2022/09/25 09:11:41;;;;;;;10.40;9.30;;;;;;;13.35;100.00;96235.94;4907482;29;20701;-57
2022/09/25 09:14:14;;;;;;;10.77;9.70;;;;;;;13.28;100.00;96242.09;4905520;29;20324;-55
2022/09/25 09:16:44;;;;;;;10.60;9.70;;;;;;;13.25;100.00;96239.78;4907198;29;20203;-55
2022/09/25 09:19:12;;;;;;;10.83;9.83;;;;;;;13.24;100.00;96240.75;4906946;29;20291;-55
2022/09/25 09:21:41;;;;;;;10.83;9.90;;;;;;;13.26;100.00;96244.06;4905837;29;20702;-56
2022/09/25 09:24:15;;;;;;;9.90;9.00;;;;;;;13.29;100.00;96238.41;4906168;29;20223;-56
2022/09/25 09:26:54;;;;;;;10.40;9.47;;;;;;;13.32;100.00;96233.59;4907126;29;20204;-57
2022/09/25 09:29:36;;;;;;;12.07;10.40;;;;;;;13.24;100.00;96236.28;4907005;29;20228;-56
2022/09/25 09:32:25;;;;;;;11.93;10.83;;;;;;;13.26;100.00;96244.06;4906389;29;21333;-56
2022/09/25 09:35:03;;;;;;;10.90;9.90;;;;;;;13.23;100.00;96237.28;4906910;29;20319;-56
2022/09/25 09:37:40;;;;;;;9.67;8.77;;;;;;;13.22;100.00;96238.25;4906637;29;20196;-56
2022/09/25 09:40:24;;;;;;;9.37;8.50;;;;;;;13.21;100.00;96235.78;4906475;29;20204;-56
2022/09/25 09:42:58;;;;;;;9.57;8.67;;;;;;;13.15;100.00;96231.13;4906507;29;20581;-55
2022/09/25 09:45:31;;;;;;;8.13;7.33;;;;;;;13.14;100.00;96234.81;4905870;29;20692;-55
2022/09/25 09:48:04;;;;;;;7.83;7.13;;;;;;;13.00;100.00;96228.34;4906109;29;20295;-56
2022/09/25 09:50:39;;;;;;;7.50;6.80;;;;;;;13.08;100.00;96228.31;4906974;29;20540;-57
2022/09/25 09:53:12;;;;;;;9.83;6.80;;;;;;;13.18;100.00;96236.13;4907323;29;20219;-54
2022/09/25 09:55:42;;;;;;;6.70;6.10;;;;;;;13.26;100.00;96228.13;4906328;29;20646;-56
2022/09/25 09:58:21;;;;;;;7.70;7.00;;;;;;;13.28;100.00;96231.47;4906698;29;20698;-55
2022/09/25 10:00:48;;;;;;;6.87;6.27;;;;;;;13.29;100.00;96228.63;4905868;29;20291;-55
2022/09/25 10:03:19;;;;;;;6.90;6.30;;;;;;;13.36;100.00;96228.75;4906344;29;20303;-56
2022/09/25 10:05:48;;;;;;;8.43;7.53;;;;;;;13.41;100.00;96231.75;4906357;29;20212;-55
2022/09/25 10:08:15;;;;;;;7.33;6.70;;;;;;;13.43;100.00;96235.06;4906586;29;20640;-57
2022/09/25 10:10:46;;;;;;;6.07;5.57;;;;;;;13.40;100.00;96230.91;4906214;29;20572;-57
2022/09/25 10:13:18;;;;;;;8.20;7.37;;;;;;;13.45;100.00;96233.91;4906035;29;20332;-55
2022/09/25 10:15:47;;;;;;;7.60;6.90;;;;;;;13.51;100.00;96237.69;4906617;29;20204;-56
2022/09/25 10:18:15;;;;;;;8.03;7.30;;;;;;;13.60;100.00;96234.03;4907565;29;20276;-56
2022/09/25 10:20:44;;;;;;;8.30;7.50;;;;;;;13.63;100.00;96230.19;4908078;29;20284;-57
2022/09/25 10:23:22;;;;;;;7.90;7.20;;;;;;;13.89;100.00;96220.09;4907851;29;20209;-56
2022/09/25 10:25:50;;;;;;;7.30;6.60;;;;;;;14.18;100.00;96224.75;4907636;29;20299;-56
2022/09/25 10:28:26;;;;;;;8.63;7.83;;;;;;;14.41;100.00;96223.00;4907373;29;20311;-56
2022/09/25 10:30:54;;;;;;;7.20;6.50;;;;;;;14.79;100.00;96214.06;4908117;29;20235;-56
2022/09/25 10:33:22;;;;;;;7.80;7.10;;;;;;;14.98;100.00;96207.41;4908011;29;20215;-55
2022/09/25 10:35:53;;;;;;;8.53;7.73;;;;;;;15.16;100.00;96212.38;4906888;29;20291;-55
2022/09/25 10:38:40;;;;;;;7.00;6.40;;;;;;;15.15;100.00;96208.06;4906251;29;20642;-56
2022/09/25 10:41:12;;;;;;;5.50;5.10;;;;;;;15.06;100.00;96209.13;4906720;29;20299;-57
2022/09/25 10:43:51;;;;;;;5.87;5.23;;;;;;;14.77;100.00;96210.72;4907296;29;20211;-56
2022/09/25 10:50:09;;;;;;;5.60;5.13;;;;;;;14.72;100.00;96215.78;4887444;29;20200;-55
2022/09/25 10:52:05;;;;;;;6.40;5.80;;;;;;;14.93;100.00;96221.25;4888957;29;20652;-54
2022/09/25 10:54:32;;;;;;;5.30;4.90;;;;;;;14.86;100.00;96219.47;4889150;29;20233;-54
2022/09/25 10:57:00;;;;;;;6.40;5.83;;;;;;;14.73;100.00;96214.78;4889041;29;20288;-55
2022/09/25 10:59:28;;;;;;;6.50;6.00;;;;;;;14.71;100.00;96222.09;4890200;29;20307;-57
2022/09/25 11:01:55;;;;;;;6.90;6.30;;;;;;;14.69;100.00;96217.97;4890172;29;20288;-56
2022/09/25 11:04:24;;;;;;;6.87;6.30;;;;;;;14.69;100.00;96223.28;4888885;29;20295;-56
2022/09/25 11:06:53;;;;;;;7.50;6.80;;;;;;;14.54;100.00;96231.22;4889025;29;20205;-55
2022/09/25 11:09:22;;;;;;;7.23;6.63;;;;;;;14.53;100.00;96224.22;4890330;29;20228;-55
2022/09/25 11:11:49;;;;;;;7.30;6.70;;;;;;;14.50;100.00;96229.06;4888487;29;20200;-55
2022/09/25 11:14:27;;;;;;;6.77;6.17;;;;;;;14.37;100.00;96227.84;4887534;29;20248;-57
2022/09/25 11:16:56;;;;;;;7.47;6.77;;;;;;;14.29;100.00;96230.50;4886743;29;20236;-56
2022/09/25 11:19:27;;;;;;;7.90;7.20;;;;;;;14.34;100.00;96230.88;4887650;29;20224;-59
2022/09/25 11:22:03;;;;;;;8.00;7.30;;;;;;;14.37;100.00;96224.34;4886637;29;20204;-57
2022/09/25 11:24:39;;;;;;;7.37;6.77;;;;;;;14.40;100.00;96226.66;4886161;29;20204;-57
2022/09/25 11:27:11;;;;;;;7.13;6.53;;;;;;;14.39;100.00;96230.31;4886559;29;20220;-57
2022/09/25 11:29:44;;;;;;;7.40;6.70;;;;;;;14.36;100.00;96214.72;4886091;29;20205;-55
2022/09/25 11:32:19;;;;;;;7.23;6.63;;;;;;;14.36;100.00;96217.38;4886871;29;20229;-57
2022/09/25 11:35:12;;;;;;;8.17;7.37;;;;;;;14.37;100.00;96208.41;4886529;29;20216;-56
2022/09/25 11:37:44;;;;;;;6.63;6.13;;;;;;;14.38;100.00;96215.38;4886717;29;20722;-56
2022/09/25 11:43:20;;;;;;;8.57;6.60;;;;;;;14.33;100.00;96210.53;4890227;29;20260;-56
2022/09/25 11:45:55;;;;;;;6.60;6.10;;;;;;;14.42;100.00;96208.66;4902871;29;20339;-56
2022/09/25 11:48:26;;;;;;;6.80;6.20;;;;;;;14.48;100.00;96215.97;4909677;29;20203;-56
2022/09/25 11:50:59;;;;;;;7.17;6.57;;;;;;;14.61;100.00;96210.03;4909816;29;20236;-54
2022/09/25 11:53:32;;;;;;;7.27;6.67;;;;;;;14.56;100.00;96212.41;4910564;29;20216;-54